Time;durP1;ratioP1;P1;durP2;ratioP2;P2;SDS_P1;SDS_P2;PMS_P1;PMS_P2;Temp;Humidity;BMP_temperature;BMP_pressure;BME280_temperature;BME280_humidity;BME280_pressure;Samples;Min_cycle;Max_cycle;Signal;HPM_P1;HPM_P2
2023/09/18 00:00:25;;;;;;;14.50;5.47;;;20.90;99.90;;;;;;5025173;28;20230;-54
2023/09/18 00:02:53;;;;;;;9.85;5.65;;;20.90;99.90;;;;;;5029189;28;20248;-53
2023/09/18 00:05:22;;;;;;;8.10;5.43;;;20.90;99.90;;;;;;5031184;28;20718;-53
2023/09/18 00:07:50;;;;;;;11.20;5.90;;;20.80;99.90;;;;;;5012703;28;20223;-54
2023/09/18 00:10:18;;;;;;;12.65;6.18;;;20.80;99.90;;;;;;5019679;28;20265;-53
2023/09/18 00:12:46;;;;;;;10.85;5.60;;;20.80;99.90;;;;;;5021781;28;20238;-55
2023/09/18 00:15:14;;;;;;;9.45;6.03;;;20.70;99.90;;;;;;5011387;28;20664;-55
2023/09/18 00:17:44;;;;;;;10.70;6.00;;;20.70;99.90;;;;;;5027365;28;20309;-56
2023/09/18 00:20:13;;;;;;;8.20;6.03;;;20.60;99.90;;;;;;5028246;28;20202;-53
2023/09/18 00:22:41;;;;;;;10.32;5.80;;;20.60;99.90;;;;;;5022598;28;20211;-65
2023/09/18 00:25:09;;;;;;;9.35;5.60;;;20.60;99.90;;;;;;5022975;28;20644;-58
2023/09/18 00:27:37;;;;;;;10.48;5.70;;;20.50;99.90;;;;;;5022489;28;20279;-54
2023/09/18 00:30:07;;;;;;;11.82;6.05;;;20.50;99.90;;;;;;5022172;28;20206;-62
2023/09/18 00:32:35;;;;;;;10.00;5.45;;;20.50;99.90;;;;;;5026268;28;20249;-53
2023/09/18 00:35:05;;;;;;;9.65;5.40;;;20.50;99.90;;;;;;5022734;28;20542;-53
2023/09/18 00:37:33;;;;;;;7.90;5.65;;;20.50;99.90;;;;;;5030606;28;20729;-53
2023/09/18 00:40:01;;;;;;;12.73;6.30;;;20.50;99.90;;;;;;5025282;28;20672;-53
2023/09/18 00:42:29;;;;;;;10.43;6.25;;;20.50;99.90;;;;;;5027712;28;20302;-58
2023/09/18 00:44:57;;;;;;;8.68;5.28;;;20.50;99.90;;;;;;5032905;28;20214;-53
2023/09/18 00:47:25;;;;;;;7.55;6.10;;;20.50;99.90;;;;;;5025880;28;20261;-52
2023/09/18 00:49:53;;;;;;;18.27;5.47;;;20.40;99.90;;;;;;5033191;28;20213;-52
2023/09/18 00:52:22;;;;;;;6.78;5.90;;;20.50;99.90;;;;;;5019819;28;20198;-53
2023/09/18 00:54:50;;;;;;;10.48;5.68;;;20.50;99.90;;;;;;5025688;28;20202;-55
2023/09/18 00:57:18;;;;;;;7.40;5.53;;;20.50;99.90;;;;;;5026542;28;20260;-55
2023/09/18 00:59:46;;;;;;;11.77;5.90;;;20.50;99.90;;;;;;5026141;28;20286;-53
2023/09/18 01:02:14;;;;;;;9.88;5.80;;;20.50;99.90;;;;;;5030057;28;20202;-53
2023/09/18 01:04:44;;;;;;;7.68;6.18;;;20.50;99.90;;;;;;5030528;28;20679;-55
2023/09/18 01:07:12;;;;;;;10.40;6.10;;;20.50;99.90;;;;;;5022540;28;20691;-56
2023/09/18 01:09:41;;;;;;;6.30;5.38;;;20.50;99.90;;;;;;5030210;28;20198;-54
2023/09/18 01:12:15;;;;;;;11.55;5.75;;;20.40;99.90;;;;;;5022689;28;20209;-56
2023/09/18 01:14:45;;;;;;;11.10;5.80;;;20.40;99.90;;;;;;5026428;28;20273;-55
2023/09/18 01:17:15;;;;;;;8.07;5.90;;;20.40;99.90;;;;;;5026398;28;20311;-53
2023/09/18 01:19:45;;;;;;;9.50;5.68;;;20.40;99.90;;;;;;5027672;28;20214;-56
2023/09/18 01:22:14;;;;;;;8.40;5.82;;;20.40;99.90;;;;;;5022640;28;20224;-55
2023/09/18 01:24:44;;;;;;;14.07;6.20;;;20.40;99.90;;;;;;5025758;28;20211;-55
2023/09/18 01:27:14;;;;;;;10.25;5.85;;;20.30;99.90;;;;;;5025904;28;20248;-53
2023/09/18 01:29:42;;;;;;;6.43;5.68;;;20.30;99.90;;;;;;5025552;28;20241;-53
2023/09/18 01:32:10;;;;;;;11.63;5.80;;;20.30;99.90;;;;;;5021795;28;20206;-53
2023/09/18 01:34:41;;;;;;;10.95;5.78;;;20.30;99.90;;;;;;5031420;28;20202;-54
2023/09/18 01:37:16;;;;;;;10.13;5.30;;;20.20;99.90;;;;;;5018754;28;20222;-55
2023/09/18 01:39:47;;;;;;;8.35;5.78;;;20.20;99.90;;;;;;5023599;28;20218;-57
2023/09/18 01:42:15;;;;;;;13.18;5.97;;;20.20;99.90;;;;;;5033664;28;20292;-59
2023/09/18 01:44:43;;;;;;;12.00;5.88;;;20.20;99.90;;;;;;5024821;28;20244;-58
2023/09/18 01:47:13;;;;;;;9.02;5.88;;;20.20;99.90;;;;;;5019579;28;20309;-53
2023/09/18 01:49:42;;;;;;;8.60;5.90;;;20.20;99.90;;;;;;5025279;28;20237;-56
2023/09/18 01:52:10;;;;;;;6.97;6.18;;;20.20;99.90;;;;;;5033028;28;20210;-53
2023/09/18 01:54:38;;;;;;;7.20;5.55;;;20.20;99.90;;;;;;5025088;28;20202;-53
2023/09/18 01:57:07;;;;;;;8.02;5.90;;;20.20;99.90;;;;;;5030405;28;20222;-55
2023/09/18 01:59:35;;;;;;;8.90;5.47;;;20.20;99.90;;;;;;5028207;28;20202;-58
2023/09/18 02:02:09;;;;;;;18.85;6.20;;;20.10;99.90;;;;;;5024775;28;20673;-52
2023/09/18 02:04:39;;;;;;;12.65;6.13;;;20.10;99.90;;;;;;5032627;28;20205;-53
2023/09/18 02:07:27;;;;;;;9.70;6.95;;;20.10;99.90;;;;;;5023712;28;20233;-58
2023/09/18 02:09:55;;;;;;;10.02;6.57;;;20.10;99.90;;;;;;5024864;28;20214;-53
2023/09/18 02:12:24;;;;;;;12.93;6.85;;;20.00;99.90;;;;;;5032918;28;20738;-52
2023/09/18 02:14:52;;;;;;;14.48;7.13;;;20.00;99.90;;;;;;5024164;28;20625;-53
2023/09/18 02:17:20;;;;;;;14.93;7.25;;;19.90;99.90;;;;;;5027920;28;20261;-55
2023/09/18 02:19:49;;;;;;;13.27;6.78;;;19.90;99.90;;;;;;5023708;28;20206;-56
2023/09/18 02:22:17;;;;;;;17.77;7.07;;;19.80;99.90;;;;;;5025134;28;20234;-53
2023/09/18 02:24:46;;;;;;;11.93;7.50;;;19.80;99.90;;;;;;5024379;28;20256;-53
2023/09/18 02:27:14;;;;;;;11.80;6.78;;;19.80;99.90;;;;;;5025711;28;20227;-54
2023/09/18 02:29:49;;;;;;;11.50;7.70;;;19.80;99.90;;;;;;5028547;28;20248;-53
2023/09/18 02:32:17;;;;;;;11.20;7.65;;;19.80;99.90;;;;;;5023319;28;20292;-53
2023/09/18 02:34:45;;;;;;;9.48;7.13;;;19.80;99.90;;;;;;5022400;28;20202;-53
2023/09/18 02:37:13;;;;;;;10.95;7.35;;;19.80;99.90;;;;;;5026741;28;20720;-53
2023/09/18 02:39:41;;;;;;;11.85;7.20;;;19.80;99.90;;;;;;5028563;28;20240;-52
2023/09/18 02:42:09;;;;;;;14.95;7.15;;;19.80;99.90;;;;;;5024876;28;20210;-53
2023/09/18 02:44:38;;;;;;;7.65;6.55;;;19.80;99.90;;;;;;5032721;28;20300;-52
2023/09/18 02:47:07;;;;;;;13.00;7.20;;;19.80;99.90;;;;;;5022253;28;20234;-54
2023/09/18 02:49:35;;;;;;;10.93;7.43;;;19.80;99.90;;;;;;5016848;28;20709;-53
2023/09/18 02:52:03;;;;;;;12.43;7.47;;;19.70;99.90;;;;;;5024829;28;20276;-54
2023/09/18 02:54:31;;;;;;;12.55;7.30;;;19.70;99.90;;;;;;5032568;28;20745;-57
2023/09/18 02:56:59;;;;;;;8.57;6.57;;;19.60;99.90;;;;;;5015093;28;20309;-57
2023/09/18 02:59:27;;;;;;;9.95;7.45;;;19.50;99.90;;;;;;5024034;28;20372;-56
2023/09/18 03:01:55;;;;;;;9.50;7.07;;;19.50;99.90;;;;;;5031474;28;20683;-54
2023/09/18 03:04:24;;;;;;;10.15;7.00;;;19.50;99.90;;;;;;5032704;28;20206;-57
2023/09/18 03:06:52;;;;;;;13.77;6.78;;;19.50;99.90;;;;;;5023605;28;20233;-54
2023/09/18 03:09:21;;;;;;;13.98;6.72;;;19.60;99.90;;;;;;5027999;28;20679;-56
2023/09/18 03:11:49;;;;;;;8.35;7.32;;;19.50;99.90;;;;;;5028761;28;20272;-59
2023/09/18 03:14:17;;;;;;;12.55;6.82;;;19.60;99.90;;;;;;5024892;28;20593;-59
2023/09/18 03:16:45;;;;;;;13.80;6.82;;;19.50;99.90;;;;;;5024358;28;20210;-53
2023/09/18 03:19:13;;;;;;;8.75;6.43;;;19.50;99.90;;;;;;5027576;28;20242;-53
2023/09/18 03:21:42;;;;;;;9.90;6.72;;;19.50;99.90;;;;;;5025686;28;20619;-60
2023/09/18 03:24:10;;;;;;;13.32;6.85;;;19.60;99.90;;;;;;5029356;28;20288;-55
2023/09/18 03:26:38;;;;;;;7.70;6.10;;;19.60;99.90;;;;;;5023832;28;20725;-55
2023/09/18 03:29:06;;;;;;;9.10;6.38;;;19.60;99.90;;;;;;5030174;28;20209;-55
2023/09/18 03:31:34;;;;;;;7.43;6.65;;;19.60;99.90;;;;;;5026376;28;20197;-55
2023/09/18 03:34:02;;;;;;;12.85;6.78;;;19.60;99.90;;;;;;5023596;28;20261;-55
2023/09/18 03:36:30;;;;;;;8.52;6.00;;;19.60;99.90;;;;;;5032006;28;20202;-56
2023/09/18 03:38:59;;;;;;;10.15;6.78;;;19.60;99.90;;;;;;5014593;28;20296;-54
2023/09/18 03:41:27;;;;;;;11.57;6.03;;;19.60;99.90;;;;;;5025329;28;20260;-56
2023/09/18 03:43:55;;;;;;;10.55;6.40;;;19.60;99.90;;;;;;5023494;28;20213;-54
2023/09/18 03:46:23;;;;;;;7.50;6.70;;;19.60;99.90;;;;;;5023621;28;20284;-55
2023/09/18 03:48:51;;;;;;;9.63;6.47;;;19.60;99.90;;;;;;5031283;28;20243;-53
2023/09/18 03:51:20;;;;;;;9.93;6.65;;;19.50;99.90;;;;;;5026485;28;20203;-54
2023/09/18 03:53:48;;;;;;;7.22;6.50;;;19.50;99.90;;;;;;5027777;28;20256;-58
2023/09/18 03:56:17;;;;;;;10.93;6.57;;;19.50;99.90;;;;;;5023658;28;20209;-59
2023/09/18 03:58:49;;;;;;;7.07;5.93;;;19.50;99.90;;;;;;5031354;28;20218;-54
2023/09/18 04:01:17;;;;;;;9.82;5.80;;;19.50;99.90;;;;;;5015129;28;20202;-53
2023/09/18 04:03:45;;;;;;;9.10;6.53;;;19.50;99.90;;;;;;5024304;28;20206;-53
2023/09/18 04:06:13;;;;;;;10.07;6.25;;;19.50;99.90;;;;;;5031227;28;20214;-53
2023/09/18 04:08:41;;;;;;;14.00;6.45;;;19.50;99.90;;;;;;5022422;28;20222;-53
2023/09/18 04:11:09;;;;;;;10.55;6.57;;;19.50;99.90;;;;;;5029669;28;20206;-57
2023/09/18 04:13:38;;;;;;;9.00;5.88;;;19.50;99.90;;;;;;5019682;28;20214;-53
2023/09/18 04:16:08;;;;;;;10.93;6.65;;;19.50;99.90;;;;;;5027176;28;20246;-56
2023/09/18 04:18:36;;;;;;;8.45;6.25;;;19.50;99.90;;;;;;5032389;28;20237;-56
2023/09/18 04:21:04;;;;;;;16.88;7.07;;;19.40;99.90;;;;;;5018384;28;20241;-57
2023/09/18 04:23:33;;;;;;;10.50;6.43;;;19.40;99.90;;;;;;5024200;28;20209;-57
2023/09/18 04:26:01;;;;;;;12.02;6.93;;;19.40;99.90;;;;;;5032362;28;20225;-57
2023/09/18 04:28:30;;;;;;;12.55;6.47;;;19.40;99.90;;;;;;5028056;28;20230;-57
2023/09/18 04:30:59;;;;;;;11.52;6.18;;;19.40;99.90;;;;;;5031420;28;20210;-56
2023/09/18 04:33:28;;;;;;;7.30;5.97;;;19.40;99.90;;;;;;5027602;28;20210;-56
2023/09/18 04:35:57;;;;;;;11.73;6.00;;;19.40;99.90;;;;;;5026785;28;20210;-56
2023/09/18 04:38:24;;;;;;;7.97;5.78;;;19.40;99.90;;;;;;5034183;28;20288;-56
2023/09/18 04:40:58;;;;;;;12.07;5.53;;;19.50;99.90;;;;;;5026595;28;20202;-56
2023/09/18 04:43:29;;;;;;;11.27;6.78;;;19.50;99.90;;;;;;5029889;28;20660;-57
2023/09/18 04:45:56;;;;;;;11.10;5.90;;;19.50;99.90;;;;;;5031445;28;20245;-57
2023/09/18 04:48:26;;;;;;;10.75;5.70;;;19.50;99.90;;;;;;5025913;28;20228;-57
2023/09/18 04:50:54;;;;;;;11.75;5.55;;;19.50;99.90;;;;;;5034440;28;20686;-55
2023/09/18 04:53:22;;;;;;;9.48;5.60;;;19.50;99.90;;;;;;5029185;28;20207;-57
2023/09/18 04:55:50;;;;;;;11.13;5.95;;;19.50;99.90;;;;;;5030230;28;20689;-57
2023/09/18 04:58:18;;;;;;;7.63;4.93;;;19.40;99.90;;;;;;5025891;28;20230;-57
2023/09/18 05:00:47;;;;;;;8.98;5.60;;;19.40;99.90;;;;;;5034294;28;20233;-57
2023/09/18 05:03:15;;;;;;;10.13;5.43;;;19.40;99.90;;;;;;5025875;28;20214;-57
2023/09/18 05:05:45;;;;;;;9.77;5.47;;;19.40;99.90;;;;;;5028235;28;20214;-58
2023/09/18 05:08:13;;;;;;;11.02;5.38;;;19.40;99.90;;;;;;5015219;28;20722;-57
2023/09/18 05:10:41;;;;;;;8.13;5.55;;;19.40;99.90;;;;;;5028583;28;20206;-58
2023/09/18 05:13:09;;;;;;;11.52;5.10;;;19.40;99.90;;;;;;5025795;28;20238;-57
2023/09/18 05:15:37;;;;;;;11.38;5.03;;;19.40;99.90;;;;;;5028764;28;20202;-57
2023/09/18 05:18:05;;;;;;;7.20;4.90;;;19.40;99.90;;;;;;5031410;28;20249;-57
2023/09/18 05:20:35;;;;;;;10.10;5.00;;;19.40;99.90;;;;;;5029089;28;20268;-57
2023/09/18 05:23:04;;;;;;;8.07;4.68;;;19.40;99.90;;;;;;5025751;28;20202;-57
2023/09/18 05:25:34;;;;;;;10.50;4.80;;;19.40;99.90;;;;;;5033324;28;20293;-58
2023/09/18 05:28:04;;;;;;;12.07;4.60;;;19.50;99.90;;;;;;5025360;28;20482;-56
2023/09/18 05:30:34;;;;;;;6.90;4.68;;;19.50;99.90;;;;;;5028469;28;20904;-58
2023/09/18 05:33:04;;;;;;;8.35;4.80;;;19.60;99.90;;;;;;5033134;28;20210;-58
2023/09/18 05:35:32;;;;;;;9.77;5.28;;;19.60;99.90;;;;;;5025242;28;20583;-59
2023/09/18 05:38:00;;;;;;;9.55;4.43;;;19.60;99.90;;;;;;5017490;28;20788;-59
2023/09/18 05:40:30;;;;;;;12.27;4.63;;;19.60;99.90;;;;;;5025617;28;20671;-58
2023/09/18 05:42:58;;;;;;;14.38;4.72;;;19.60;99.90;;;;;;5021579;28;20585;-58
2023/09/18 05:45:26;;;;;;;8.98;4.50;;;19.60;99.90;;;;;;5032164;28;20593;-59
2023/09/18 05:48:01;;;;;;;10.88;4.85;;;19.60;99.90;;;;;;5032040;28;20226;-58
2023/09/18 05:50:30;;;;;;;12.73;4.60;;;19.60;99.90;;;;;;5020763;28;20198;-58
2023/09/18 05:52:59;;;;;;;15.02;4.95;;;19.60;99.90;;;;;;5014672;28;20207;-57
2023/09/18 05:55:27;;;;;;;11.98;4.68;;;19.70;99.90;;;;;;5028780;28;20253;-58
2023/09/18 05:57:57;;;;;;;15.38;4.63;;;19.70;99.90;;;;;;5024098;28;20585;-58
2023/09/18 06:00:25;;;;;;;12.55;4.80;;;19.60;99.90;;;;;;5014508;28;20250;-58
2023/09/18 06:02:53;;;;;;;14.57;5.10;;;19.70;99.90;;;;;;5025046;28;20575;-58
2023/09/18 06:05:22;;;;;;;13.05;4.65;;;19.70;99.90;;;;;;5024086;28;20198;-57
2023/09/18 06:07:50;;;;;;;17.20;4.18;;;19.70;99.90;;;;;;5025822;28;20333;-58
2023/09/18 06:10:18;;;;;;;15.55;4.43;;;19.70;99.90;;;;;;5024571;28;20226;-58
2023/09/18 06:12:46;;;;;;;29.38;5.13;;;19.70;99.90;;;;;;5013802;28;20264;-58
2023/09/18 06:15:15;;;;;;;14.70;5.47;;;19.70;99.90;;;;;;5029470;28;20260;-58
2023/09/18 06:17:44;;;;;;;14.30;4.57;;;19.70;99.90;;;;;;5026810;28;20707;-58
2023/09/18 06:20:12;;;;;;;18.55;4.57;;;19.70;99.90;;;;;;5027920;28;20202;-58
2023/09/18 06:22:41;;;;;;;14.18;4.93;;;19.70;99.90;;;;;;5024526;28;20214;-58
2023/09/18 06:25:09;;;;;;;18.38;4.15;;;19.70;99.90;;;;;;5031311;28;20297;-58
2023/09/18 06:27:37;;;;;;;13.88;4.45;;;19.70;99.90;;;;;;5025944;28;20310;-58
2023/09/18 06:30:06;;;;;;;15.73;4.50;;;19.80;99.90;;;;;;5024154;28;20253;-58
2023/09/18 06:32:36;;;;;;;19.83;4.65;;;19.80;99.90;;;;;;5032263;28;20206;-59
2023/09/18 06:35:05;;;;;;;13.63;4.30;;;19.80;99.90;;;;;;5024249;28;20216;-58
2023/09/18 06:37:33;;;;;;;17.52;4.45;;;19.70;99.90;;;;;;5023959;28;20236;-59
2023/09/18 06:40:03;;;;;;;12.38;4.32;;;19.80;99.90;;;;;;5024276;28;20728;-58
2023/09/18 06:42:32;;;;;;;13.07;4.30;;;19.80;99.90;;;;;;5024971;28;20202;-59
2023/09/18 06:45:01;;;;;;;14.27;3.95;;;19.80;99.90;;;;;;5024129;28;20310;-58
2023/09/18 06:47:29;;;;;;;13.40;4.28;;;19.80;99.90;;;;;;5028542;28;20313;-58
2023/09/18 06:50:00;;;;;;;20.58;3.90;;;19.80;99.90;;;;;;5027839;28;20226;-58
2023/09/18 06:52:27;;;;;;;24.38;4.03;;;19.90;99.90;;;;;;5024082;28;20230;-58
2023/09/18 06:54:57;;;;;;;13.52;3.80;;;19.90;99.90;;;;;;5024013;28;20726;-58
2023/09/18 06:57:25;;;;;;;13.45;4.32;;;19.90;99.90;;;;;;5028311;28;20728;-58
2023/09/18 06:59:53;;;;;;;16.42;3.92;;;20.00;99.90;;;;;;5027544;28;20210;-58
2023/09/18 07:02:21;;;;;;;13.68;4.28;;;20.00;99.90;;;;;;5023846;28;20226;-59
2023/09/18 07:04:49;;;;;;;19.83;4.13;;;20.00;99.90;;;;;;5031535;28;20209;-58
2023/09/18 07:07:24;;;;;;;12.77;3.92;;;20.00;99.90;;;;;;5018496;28;20222;-58
2023/09/18 07:09:52;;;;;;;12.43;3.80;;;20.00;99.90;;;;;;5018589;28;20777;-58
2023/09/18 07:12:32;;;;;;;15.52;4.38;;;20.00;99.90;;;;;;5024105;28;20209;-57
2023/09/18 07:15:02;;;;;;;15.10;4.10;;;20.10;99.90;;;;;;5023404;28;20206;-57
2023/09/18 07:17:30;;;;;;;14.55;4.03;;;20.10;99.90;;;;;;5027722;28;20708;-57
2023/09/18 07:19:59;;;;;;;13.77;4.03;;;20.10;99.90;;;;;;5020415;28;20257;-58
2023/09/18 07:22:28;;;;;;;21.55;4.70;;;20.10;99.90;;;;;;5022381;28;20198;-57
2023/09/18 07:24:58;;;;;;;17.88;4.60;;;20.20;99.90;;;;;;5022856;28;20296;-58
2023/09/18 07:27:26;;;;;;;13.63;3.80;;;20.20;99.90;;;;;;5028213;28;20273;-58
2023/09/18 07:29:56;;;;;;;13.02;3.90;;;20.20;99.90;;;;;;5021614;28;20233;-58
2023/09/18 07:32:26;;;;;;;15.75;4.50;;;20.20;99.90;;;;;;5028362;28;20213;-58
2023/09/18 07:35:06;;;;;;;15.70;4.07;;;20.20;99.90;;;;;;5026729;28;20271;-59
2023/09/18 07:37:36;;;;;;;14.43;3.92;;;20.30;99.90;;;;;;5021655;28;20217;-57
2023/09/18 07:40:04;;;;;;;14.63;3.63;;;20.30;99.90;;;;;;5021135;28;20298;-58
2023/09/18 07:42:32;;;;;;;15.98;4.28;;;20.30;99.90;;;;;;5021498;28;20226;-58
2023/09/18 07:45:00;;;;;;;12.43;4.05;;;20.40;99.90;;;;;;5029017;28;20672;-58
2023/09/18 07:47:29;;;;;;;16.40;3.70;;;20.40;99.90;;;;;;5025648;28;20231;-58
2023/09/18 07:49:58;;;;;;;15.40;3.95;;;20.50;99.90;;;;;;5025424;28;20283;-58
2023/09/18 07:52:25;;;;;;;8.68;3.38;;;20.50;99.90;;;;;;5022836;28;20243;-59
2023/09/18 07:54:55;;;;;;;15.98;4.00;;;20.60;99.90;;;;;;5031096;28;20209;-59
2023/09/18 07:57:23;;;;;;;12.80;3.42;;;20.60;99.90;;;;;;5022851;28;20299;-58
2023/09/18 07:59:52;;;;;;;12.57;3.85;;;20.70;99.90;;;;;;5025305;28;20293;-58
2023/09/18 08:02:21;;;;;;;9.75;3.38;;;20.70;99.90;;;;;;5021214;28;20234;-58
2023/09/18 08:04:50;;;;;;;12.20;3.70;;;20.80;99.90;;;;;;5030909;28;20201;-59
2023/09/18 08:07:17;;;;;;;9.27;3.28;;;20.80;99.90;;;;;;5022871;28;20230;-59
2023/09/18 08:09:47;;;;;;;13.63;3.90;;;20.90;99.90;;;;;;5023205;28;20261;-59
2023/09/18 08:12:16;;;;;;;12.40;3.75;;;20.90;99.90;;;;;;5030180;28;20216;-59
2023/09/18 08:14:44;;;;;;;22.15;4.05;;;21.10;99.90;;;;;;5024466;28;20289;-58
2023/09/18 08:17:12;;;;;;;15.35;4.00;;;21.10;99.90;;;;;;5022598;28;20317;-60
2023/09/18 08:19:40;;;;;;;10.90;3.20;;;21.10;99.90;;;;;;5030799;28;20201;-59
2023/09/18 08:22:08;;;;;;;8.30;3.17;;;21.10;99.90;;;;;;5031062;28;20629;-60
2023/09/18 08:24:36;;;;;;;15.65;3.63;;;21.20;99.90;;;;;;5023744;28;20260;-58
2023/09/18 08:27:04;;;;;;;16.00;4.07;;;21.40;99.90;;;;;;5023561;28;20313;-59
2023/09/18 08:29:34;;;;;;;16.35;3.55;;;21.40;99.90;;;;;;5023341;28;20198;-60
2023/09/18 08:32:02;;;;;;;10.38;3.47;;;21.50;99.90;;;;;;5032090;28;20202;-60
2023/09/18 08:34:30;;;;;;;14.50;3.35;;;21.50;99.90;;;;;;5024647;28;20803;-58
2023/09/18 08:36:58;;;;;;;8.55;3.35;;;21.60;99.90;;;;;;5026458;28;20230;-58
2023/09/18 08:39:26;;;;;;;14.82;3.28;;;21.60;99.90;;;;;;5027144;28;20225;-60
2023/09/18 08:41:55;;;;;;;13.07;2.97;;;21.60;99.90;;;;;;5032031;28;20206;-58
2023/09/18 08:44:23;;;;;;;11.75;3.20;;;21.70;99.90;;;;;;5023035;28;20661;-59
2023/09/18 08:46:52;;;;;;;10.88;3.08;;;21.80;99.90;;;;;;5021957;28;20907;-60
2023/09/18 08:49:21;;;;;;;7.53;2.95;;;21.80;99.90;;;;;;5022404;28;20294;-58
2023/09/18 08:51:49;;;;;;;13.90;3.60;;;21.80;99.90;;;;;;5030583;28;20396;-59
2023/09/18 08:54:17;;;;;;;12.60;3.13;;;21.80;99.90;;;;;;5022530;28;20244;-59
2023/09/18 08:56:45;;;;;;;10.32;2.88;;;21.70;99.90;;;;;;5025569;28;20660;-59
2023/09/18 08:59:13;;;;;;;9.73;2.75;;;21.70;99.90;;;;;;5026992;28;20212;-58
2023/09/18 09:01:41;;;;;;;7.00;2.90;;;21.70;99.90;;;;;;5025848;28;20198;-59
2023/09/18 09:04:10;;;;;;;10.35;3.42;;;21.60;99.90;;;;;;5034283;28;20629;-58
2023/09/18 09:06:38;;;;;;;9.18;2.42;;;21.60;99.90;;;;;;5022974;28;20235;-58
2023/09/18 09:09:07;;;;;;;8.55;2.45;;;21.60;99.90;;;;;;5029876;28;20264;-59
2023/09/18 09:11:35;;;;;;;11.23;2.28;;;21.60;99.90;;;;;;5025406;28;20222;-59
2023/09/18 09:14:11;;;;;;;10.70;2.42;;;21.70;99.90;;;;;;5026077;28;20209;-59
2023/09/18 09:16:39;;;;;;;5.30;2.00;;;21.80;99.90;;;;;;5030259;28;20207;-58
2023/09/18 09:19:08;;;;;;;7.28;2.33;;;21.90;99.90;;;;;;5029509;28;20562;-59
2023/09/18 09:21:43;;;;;;;6.03;1.95;;;22.10;99.90;;;;;;5033711;28;20210;-59
2023/09/18 09:24:13;;;;;;;6.78;2.00;;;22.20;99.90;;;;;;5025295;28;20210;-59
2023/09/18 09:26:42;;;;;;;7.75;1.90;;;22.30;99.90;;;;;;5029597;28;20203;-59
2023/09/18 09:29:20;;;;;;;5.72;1.95;;;22.40;99.90;;;;;;5029314;28;20227;-59
2023/09/18 09:31:50;;;;;;;6.43;1.80;;;22.50;99.90;;;;;;5025715;28;20240;-57
2023/09/18 09:34:26;;;;;;;4.75;1.48;;;22.50;99.90;;;;;;5027431;28;20206;-60
2023/09/18 09:36:55;;;;;;;4.28;1.70;;;22.50;99.90;;;;;;5027401;28;20284;-59
2023/09/18 09:39:25;;;;;;;4.90;1.60;;;22.50;99.90;;;;;;5031436;28;20840;-58
2023/09/18 09:41:53;;;;;;;3.72;1.92;;;22.40;99.90;;;;;;5025420;28;20201;-58
2023/09/18 09:44:21;;;;;;;8.75;2.28;;;22.30;99.90;;;;;;5032123;28;20245;-59
2023/09/18 09:46:50;;;;;;;7.53;1.63;;;22.20;99.90;;;;;;5026989;28;20660;-59
2023/09/18 09:49:19;;;;;;;7.93;1.92;;;22.10;99.90;;;;;;5024613;28;20206;-59
2023/09/18 09:51:47;;;;;;;7.18;1.73;;;22.10;99.90;;;;;;5028883;28;20394;-58
2023/09/18 09:54:17;;;;;;;6.57;1.63;;;22.10;99.90;;;;;;5030031;28;20244;-59
2023/09/18 09:56:45;;;;;;;5.32;1.60;;;22.10;99.90;;;;;;5025729;28;20260;-59
2023/09/18 09:59:14;;;;;;;5.30;1.55;;;22.10;99.90;;;;;;5024949;28;20233;-59
2023/09/18 10:01:44;;;;;;;9.90;1.88;;;22.20;99.90;;;;;;5033070;28;20256;-58
2023/09/18 10:04:14;;;;;;;4.85;1.50;;;22.20;99.90;;;;;;5025092;28;20613;-58
2023/09/18 10:06:43;;;;;;;3.33;1.58;;;22.20;99.90;;;;;;5023763;28;20252;-59
2023/09/18 10:09:15;;;;;;;4.10;1.00;;;22.30;99.90;;;;;;5023040;28;20210;-59
2023/09/18 10:11:46;;;;;;;10.27;1.73;;;22.30;99.90;;;;;;5025453;28;20214;-59
2023/09/18 10:14:17;;;;;;;1.77;1.13;;;22.40;99.90;;;;;;5024564;28;20218;-60
2023/09/18 10:16:47;;;;;;;3.08;1.13;;;22.40;99.90;;;;;;5018403;28;20198;-59
2023/09/18 10:19:21;;;;;;;3.10;1.00;;;22.50;99.90;;;;;;5039086;23;20241;-62
2023/09/18 10:21:51;;;;;;;6.57;1.50;;;22.50;99.90;;;;;;5017823;28;20723;-62
2023/09/18 10:24:22;;;;;;;4.03;1.13;;;22.50;99.90;;;;;;5022543;28;20236;-62
2023/09/18 10:26:52;;;;;;;5.63;1.50;;;22.40;99.90;;;;;;5032974;28;20202;-62
2023/09/18 10:29:20;;;;;;;2.58;0.90;;;22.40;99.90;;;;;;5031380;28;20265;-62
2023/09/18 10:31:49;;;;;;;5.90;1.30;;;22.40;99.90;;;;;;5032352;28;20730;-62
2023/09/18 10:34:17;;;;;;;8.57;1.10;;;22.40;99.90;;;;;;5032274;28;20289;-62
2023/09/18 10:36:45;;;;;;;2.78;1.10;;;22.40;99.90;;;;;;5032485;28;20668;-62
2023/09/18 10:39:13;;;;;;;2.30;1.02;;;22.40;99.90;;;;;;5029101;28;20889;-63
2023/09/18 10:41:42;;;;;;;6.07;1.17;;;22.50;99.90;;;;;;5023982;28;20202;-63
2023/09/18 10:44:10;;;;;;;3.03;0.93;;;22.60;99.90;;;;;;5032374;28;20214;-62
2023/09/18 10:46:38;;;;;;;2.05;0.80;;;22.60;99.90;;;;;;5032286;28;20209;-62
2023/09/18 10:49:06;;;;;;;5.75;1.10;;;22.70;99.90;;;;;;5032264;28;20237;-63
2023/09/18 10:51:34;;;;;;;1.42;0.90;;;22.80;99.90;;;;;;5029665;28;20281;-62
2023/09/18 10:54:03;;;;;;;1.95;0.80;;;22.90;99.90;;;;;;5031949;28;20213;-63
2023/09/18 10:56:31;;;;;;;4.35;1.10;;;23.00;99.90;;;;;;5031037;28;20217;-62
2023/09/18 10:59:01;;;;;;;4.72;0.93;;;23.00;99.90;;;;;;5031914;28;20252;-62
2023/09/18 11:01:29;;;;;;;4.13;0.98;;;23.00;99.90;;;;;;5030289;28;20229;-62
2023/09/18 11:04:01;;;;;;;1.42;0.80;;;23.00;99.90;;;;;;5029663;28;20206;-62
2023/09/18 11:06:29;;;;;;;3.35;1.00;;;23.00;99.90;;;;;;5030145;28;20683;-62
2023/09/18 11:09:03;;;;;;;4.75;1.13;;;22.90;99.90;;;;;;5031565;28;20268;-62
2023/09/18 11:11:32;;;;;;;4.50;0.85;;;23.00;99.90;;;;;;5030365;28;20226;-62
2023/09/18 11:14:04;;;;;;;6.15;1.20;;;23.10;99.90;;;;;;5030382;28;20210;-62
2023/09/18 11:16:38;;;;;;;3.28;0.98;;;23.00;99.90;;;;;;5030072;28;20229;-62
2023/09/18 11:19:10;;;;;;;4.82;0.90;;;23.00;99.90;;;;;;5026869;28;20234;-62
2023/09/18 11:21:38;;;;;;;4.90;1.00;;;23.00;99.90;;;;;;5031059;28;20210;-62
2023/09/18 11:24:11;;;;;;;6.90;1.15;;;22.90;99.90;;;;;;5030738;28;20268;-62
2023/09/18 11:26:41;;;;;;;6.50;1.10;;;22.90;99.90;;;;;;5031537;28;20206;-63
2023/09/18 11:29:11;;;;;;;5.03;1.10;;;22.80;99.90;;;;;;5030655;28;20284;-62
2023/09/18 11:31:44;;;;;;;4.18;1.08;;;22.80;99.90;;;;;;5029188;28;20766;-62
2023/09/18 11:34:13;;;;;;;2.35;1.10;;;22.80;99.90;;;;;;5031598;28;20255;-62
2023/09/18 11:36:41;;;;;;;3.22;0.90;;;22.80;99.90;;;;;;5031524;28;20236;-62
2023/09/18 11:39:09;;;;;;;2.28;1.00;;;22.80;99.90;;;;;;5031703;28;20237;-62
2023/09/18 11:41:38;;;;;;;1.80;0.98;;;22.80;99.90;;;;;;5030976;28;20285;-63
2023/09/18 11:44:34;;;;;;;2.67;0.90;;;22.80;99.90;;;;;;5031143;28;20766;-62
2023/09/18 11:47:05;;;;;;;4.03;0.80;;;22.90;99.90;;;;;;5027605;28;20310;-62
2023/09/18 11:49:32;;;;;;;4.57;1.10;;;22.90;99.90;;;;;;5029472;28;20222;-62
2023/09/18 11:52:00;;;;;;;2.53;0.80;;;22.90;99.90;;;;;;5029305;28;20253;-62
2023/09/18 11:54:28;;;;;;;3.63;1.25;;;22.90;99.90;;;;;;5031218;28;20210;-63
2023/09/18 11:56:57;;;;;;;3.00;1.10;;;22.90;99.90;;;;;;5029520;28;20244;-62
2023/09/18 11:59:51;;;;;;;4.05;1.05;;;22.90;99.90;;;;;;5029344;28;20230;-63
2023/09/18 12:02:27;;;;;;;2.78;0.93;;;22.80;99.90;;;;;;5011927;28;20202;-62
2023/09/18 12:04:56;;;;;;;1.92;1.15;;;22.80;99.90;;;;;;5031403;28;20205;-62
2023/09/18 12:07:24;;;;;;;2.08;1.00;;;22.70;99.90;;;;;;5021136;28;20206;-62
2023/09/18 12:09:54;;;;;;;3.28;1.02;;;22.60;99.90;;;;;;5029228;28;20226;-62
2023/09/18 12:12:22;;;;;;;4.43;1.30;;;22.60;99.90;;;;;;5030920;28;20226;-62
2023/09/18 12:14:52;;;;;;;3.35;1.63;;;22.60;99.90;;;;;;5030810;28;20233;-62
2023/09/18 12:17:20;;;;;;;3.28;1.60;;;22.60;99.90;;;;;;5027200;28;20221;-62
2023/09/18 12:19:53;;;;;;;1.20;1.10;;;22.70;99.90;;;;;;5018424;28;20237;-62
2023/09/18 12:22:25;;;;;;;1.38;1.00;;;22.90;99.90;;;;;;5028743;28;20721;-62
2023/09/18 12:24:54;;;;;;;3.25;0.90;;;23.30;99.90;;;;;;5030666;28;20209;-62
2023/09/18 12:27:26;;;;;;;1.38;0.88;;;24.00;99.90;;;;;;5030503;28;20710;-62
2023/09/18 12:29:56;;;;;;;3.10;1.08;;;24.40;99.90;;;;;;5029067;28;20253;-63
2023/09/18 12:32:24;;;;;;;2.28;1.00;;;24.70;99.90;;;;;;5030892;28;20230;-62
2023/09/18 12:34:52;;;;;;;3.65;0.90;;;25.60;99.90;;;;;;5032947;28;20653;-62
2023/09/18 12:37:20;;;;;;;3.85;1.05;;;26.60;99.90;;;;;;5032721;28;20214;-63
2023/09/18 12:39:51;;;;;;;3.90;0.70;;;27.50;99.90;;;;;;5026521;28;20710;-62
2023/09/18 12:42:19;;;;;;;3.35;0.90;;;28.10;99.90;;;;;;5034529;28;20706;-63
2023/09/18 12:44:47;;;;;;;2.85;0.90;;;28.40;99.90;;;;;;5034605;28;20304;-63
2023/09/18 12:47:16;;;;;;;2.85;0.95;;;28.40;99.90;;;;;;5033485;28;20210;-63
2023/09/18 12:49:44;;;;;;;3.60;0.90;;;28.50;99.90;;;;;;5034170;28;20225;-63
2023/09/18 12:52:13;;;;;;;2.35;0.93;;;28.60;99.90;;;;;;5032295;28;20317;-62